Terminal Aerodrome Forecast
Issued by NWS Missoula, MT

Home | Current Version | Previous Version | Text Only | Print | Product List | Glossary On
Versions: 1 2 3 4 5 6 7 8 9 10 11 12 13 14 15
508
FTUS45 KMSO 271720
TAFBTM
TAF
KBTM 271720Z 2718/2818 VRB04KT P6SM SCT100
     FM272100 VRB10G20KT P6SM VCTS BKN080CB
     FM280100 17007KT P6SM VCSH BKN080
     FM280300 VRB05KT P6SM SCT100=

USA.gov is the U.S. government's official web portal to all federal, state and local government web resources and services.